sensor_id;sensor_type;location;lat;lon;timestamp;P1;durP1;ratioP1;P2;durP2;ratioP2
56373;SDS011;58212;47.034;7.376;2022-08-19T00:01:52;15.70;;;14.43;;
56373;SDS011;58212;47.034;7.376;2022-08-19T00:04:21;15.25;;;13.93;;
56373;SDS011;58212;47.034;7.376;2022-08-19T00:06:50;15.23;;;13.98;;
56373;SDS011;58212;47.034;7.376;2022-08-19T00:09:19;15.85;;;14.55;;
56373;SDS011;58212;47.034;7.376;2022-08-19T00:11:47;15.75;;;14.38;;
56373;SDS011;58212;47.034;7.376;2022-08-19T00:14:15;15.95;;;14.55;;
56373;SDS011;58212;47.034;7.376;2022-08-19T00:16:44;15.10;;;13.90;;
56373;SDS011;58212;47.034;7.376;2022-08-19T00:19:13;15.23;;;13.93;;
56373;SDS011;58212;47.034;7.376;2022-08-19T00:21:41;16.30;;;14.85;;
56373;SDS011;58212;47.034;7.376;2022-08-19T00:24:09;15.85;;;14.52;;
56373;SDS011;58212;47.034;7.376;2022-08-19T00:26:39;15.82;;;14.30;;
56373;SDS011;58212;47.034;7.376;2022-08-19T00:29:10;15.98;;;14.68;;
56373;SDS011;58212;47.034;7.376;2022-08-19T00:31:38;15.35;;;14.05;;
56373;SDS011;58212;47.034;7.376;2022-08-19T00:34:06;15.32;;;14.13;;
56373;SDS011;58212;47.034;7.376;2022-08-19T00:36:33;15.05;;;13.75;;
56373;SDS011;58212;47.034;7.376;2022-08-19T00:39:02;15.65;;;14.35;;
56373;SDS011;58212;47.034;7.376;2022-08-19T00:41:31;13.88;;;12.77;;
56373;SDS011;58212;47.034;7.376;2022-08-19T00:44:01;13.65;;;12.40;;
56373;SDS011;58212;47.034;7.376;2022-08-19T00:46:33;13.48;;;12.27;;
56373;SDS011;58212;47.034;7.376;2022-08-19T00:49:04;12.60;;;11.60;;
56373;SDS011;58212;47.034;7.376;2022-08-19T00:51:38;12.50;;;11.50;;
56373;SDS011;58212;47.034;7.376;2022-08-19T00:54:05;11.45;;;10.60;;
56373;SDS011;58212;47.034;7.376;2022-08-19T00:56:32;11.95;;;11.05;;
56373;SDS011;58212;47.034;7.376;2022-08-19T00:59:01;10.20;;;9.38;;
56373;SDS011;58212;47.034;7.376;2022-08-19T01:01:36;11.18;;;10.38;;
56373;SDS011;58212;47.034;7.376;2022-08-19T01:04:05;10.50;;;9.60;;
56373;SDS011;58212;47.034;7.376;2022-08-19T01:06:35;11.77;;;10.73;;
56373;SDS011;58212;47.034;7.376;2022-08-19T01:09:03;11.40;;;10.30;;
56373;SDS011;58212;47.034;7.376;2022-08-19T01:11:35;11.85;;;10.85;;
56373;SDS011;58212;47.034;7.376;2022-08-19T01:14:10;12.15;;;11.05;;
56373;SDS011;58212;47.034;7.376;2022-08-19T01:16:38;12.10;;;10.98;;
56373;SDS011;58212;47.034;7.376;2022-08-19T01:19:09;12.93;;;11.73;;
56373;SDS011;58212;47.034;7.376;2022-08-19T01:21:46;13.15;;;12.15;;
56373;SDS011;58212;47.034;7.376;2022-08-19T01:24:21;11.68;;;10.68;;
56373;SDS011;58212;47.034;7.376;2022-08-19T01:26:49;11.80;;;10.70;;
56373;SDS011;58212;47.034;7.376;2022-08-19T01:29:16;12.23;;;11.23;;
56373;SDS011;58212;47.034;7.376;2022-08-19T01:31:43;12.95;;;11.75;;
56373;SDS011;58212;47.034;7.376;2022-08-19T01:34:13;12.20;;;11.00;;
56373;SDS011;58212;47.034;7.376;2022-08-19T01:36:43;12.38;;;11.27;;
56373;SDS011;58212;47.034;7.376;2022-08-19T01:39:12;11.52;;;10.55;;
56373;SDS011;58212;47.034;7.376;2022-08-19T01:41:44;11.68;;;10.63;;
56373;SDS011;58212;47.034;7.376;2022-08-19T01:44:11;11.25;;;10.38;;
56373;SDS011;58212;47.034;7.376;2022-08-19T01:46:39;11.02;;;10.13;;
56373;SDS011;58212;47.034;7.376;2022-08-19T01:49:06;11.80;;;10.77;;
56373;SDS011;58212;47.034;7.376;2022-08-19T01:51:34;11.85;;;10.95;;
56373;SDS011;58212;47.034;7.376;2022-08-19T01:54:01;11.10;;;10.20;;
56373;SDS011;58212;47.034;7.376;2022-08-19T01:56:29;10.18;;;9.30;;
56373;SDS011;58212;47.034;7.376;2022-08-19T01:58:58;10.38;;;9.35;;
56373;SDS011;58212;47.034;7.376;2022-08-19T02:01:27;10.85;;;9.85;;
56373;SDS011;58212;47.034;7.376;2022-08-19T02:03:57;11.15;;;10.05;;
56373;SDS011;58212;47.034;7.376;2022-08-19T02:06:29;10.52;;;9.63;;
56373;SDS011;58212;47.034;7.376;2022-08-19T02:08:56;11.32;;;10.43;;
56373;SDS011;58212;47.034;7.376;2022-08-19T02:11:24;10.90;;;9.93;;
56373;SDS011;58212;47.034;7.376;2022-08-19T02:13:54;9.88;;;9.07;;
56373;SDS011;58212;47.034;7.376;2022-08-19T02:16:25;10.07;;;9.27;;
56373;SDS011;58212;47.034;7.376;2022-08-19T02:18:52;10.10;;;9.30;;
56373;SDS011;58212;47.034;7.376;2022-08-19T02:21:20;8.70;;;8.00;;
56373;SDS011;58212;47.034;7.376;2022-08-19T02:23:50;8.70;;;7.90;;
56373;SDS011;58212;47.034;7.376;2022-08-19T02:26:17;8.40;;;7.80;;
56373;SDS011;58212;47.034;7.376;2022-08-19T02:28:45;8.48;;;7.85;;
56373;SDS011;58212;47.034;7.376;2022-08-19T02:31:13;8.27;;;7.68;;
56373;SDS011;58212;47.034;7.376;2022-08-19T02:33:44;8.30;;;7.60;;
56373;SDS011;58212;47.034;7.376;2022-08-19T02:36:12;8.55;;;7.78;;
56373;SDS011;58212;47.034;7.376;2022-08-19T02:38:40;8.88;;;8.18;;
56373;SDS011;58212;47.034;7.376;2022-08-19T02:41:07;8.38;;;7.70;;
56373;SDS011;58212;47.034;7.376;2022-08-19T02:43:39;8.85;;;7.93;;
56373;SDS011;58212;47.034;7.376;2022-08-19T02:46:13;8.50;;;7.57;;
56373;SDS011;58212;47.034;7.376;2022-08-19T02:48:44;8.25;;;7.38;;
56373;SDS011;58212;47.034;7.376;2022-08-19T02:51:17;7.78;;;7.00;;
56373;SDS011;58212;47.034;7.376;2022-08-19T02:53:48;7.22;;;6.63;;
56373;SDS011;58212;47.034;7.376;2022-08-19T02:56:16;7.28;;;6.68;;
56373;SDS011;58212;47.034;7.376;2022-08-19T02:58:43;7.57;;;6.88;;
56373;SDS011;58212;47.034;7.376;2022-08-19T03:01:11;6.80;;;6.22;;
56373;SDS011;58212;47.034;7.376;2022-08-19T03:03:48;6.40;;;5.90;;
56373;SDS011;58212;47.034;7.376;2022-08-19T03:06:18;7.70;;;7.00;;
56373;SDS011;58212;47.034;7.376;2022-08-19T03:08:46;6.88;;;6.30;;
56373;SDS011;58212;47.034;7.376;2022-08-19T03:11:14;6.18;;;5.68;;
56373;SDS011;58212;47.034;7.376;2022-08-19T03:13:44;6.20;;;5.70;;
56373;SDS011;58212;47.034;7.376;2022-08-19T03:16:11;5.97;;;5.47;;
56373;SDS011;58212;47.034;7.376;2022-08-19T03:18:38;6.13;;;5.53;;
56373;SDS011;58212;47.034;7.376;2022-08-19T03:21:14;5.88;;;5.28;;
56373;SDS011;58212;47.034;7.376;2022-08-19T03:23:44;6.25;;;5.68;;
56373;SDS011;58212;47.034;7.376;2022-08-19T03:26:11;6.47;;;5.97;;
56373;SDS011;58212;47.034;7.376;2022-08-19T03:28:40;7.28;;;5.85;;
56373;SDS011;58212;47.034;7.376;2022-08-19T03:31:08;6.05;;;5.55;;
56373;SDS011;58212;47.034;7.376;2022-08-19T03:33:37;6.35;;;5.75;;
56373;SDS011;58212;47.034;7.376;2022-08-19T03:36:06;6.70;;;6.05;;
56373;SDS011;58212;47.034;7.376;2022-08-19T03:38:37;7.00;;;6.45;;
56373;SDS011;58212;47.034;7.376;2022-08-19T03:41:15;6.80;;;6.20;;
56373;SDS011;58212;47.034;7.376;2022-08-19T03:43:45;6.28;;;5.68;;
56373;SDS011;58212;47.034;7.376;2022-08-19T03:46:14;6.95;;;6.25;;
56373;SDS011;58212;47.034;7.376;2022-08-19T03:48:43;7.00;;;6.30;;
56373;SDS011;58212;47.034;7.376;2022-08-19T03:51:15;6.55;;;6.05;;
56373;SDS011;58212;47.034;7.376;2022-08-19T03:53:46;7.80;;;7.10;;
56373;SDS011;58212;47.034;7.376;2022-08-19T03:56:14;8.40;;;7.70;;
56373;SDS011;58212;47.034;7.376;2022-08-19T03:58:41;9.40;;;8.60;;
56373;SDS011;58212;47.034;7.376;2022-08-19T04:01:14;9.57;;;8.85;;
56373;SDS011;58212;47.034;7.376;2022-08-19T04:03:45;10.15;;;9.25;;
56373;SDS011;58212;47.034;7.376;2022-08-19T04:06:14;11.20;;;10.30;;
56373;SDS011;58212;47.034;7.376;2022-08-19T04:08:46;10.15;;;9.25;;
56373;SDS011;58212;47.034;7.376;2022-08-19T04:11:16;10.65;;;9.40;;
56373;SDS011;58212;47.034;7.376;2022-08-19T04:13:46;9.00;;;8.00;;
56373;SDS011;58212;47.034;7.376;2022-08-19T04:16:14;6.85;;;6.35;;
56373;SDS011;58212;47.034;7.376;2022-08-19T04:18:41;7.10;;;6.50;;
56373;SDS011;58212;47.034;7.376;2022-08-19T04:21:14;5.90;;;5.40;;
56373;SDS011;58212;47.034;7.376;2022-08-19T04:23:43;6.68;;;6.18;;
56373;SDS011;58212;47.034;7.376;2022-08-19T04:26:13;7.18;;;6.50;;
56373;SDS011;58212;47.034;7.376;2022-08-19T04:28:41;7.88;;;6.57;;
56373;SDS011;58212;47.034;7.376;2022-08-19T04:31:12;8.07;;;7.32;;
56373;SDS011;58212;47.034;7.376;2022-08-19T04:33:41;7.18;;;6.60;;
56373;SDS011;58212;47.034;7.376;2022-08-19T04:36:08;7.55;;;6.85;;
56373;SDS011;58212;47.034;7.376;2022-08-19T04:38:45;7.35;;;6.85;;
56373;SDS011;58212;47.034;7.376;2022-08-19T04:41:14;8.18;;;6.95;;
56373;SDS011;58212;47.034;7.376;2022-08-19T04:43:59;7.57;;;6.88;;
56373;SDS011;58212;47.034;7.376;2022-08-19T04:46:29;7.45;;;6.65;;
56373;SDS011;58212;47.034;7.376;2022-08-19T04:48:56;7.50;;;6.72;;
56373;SDS011;58212;47.034;7.376;2022-08-19T04:51:26;7.00;;;6.40;;
56373;SDS011;58212;47.034;7.376;2022-08-19T04:53:56;7.15;;;6.55;;
56373;SDS011;58212;47.034;7.376;2022-08-19T04:56:29;6.97;;;6.38;;
56373;SDS011;58212;47.034;7.376;2022-08-19T04:58:58;6.38;;;5.88;;
56373;SDS011;58212;47.034;7.376;2022-08-19T05:01:28;6.97;;;6.28;;
56373;SDS011;58212;47.034;7.376;2022-08-19T05:03:57;6.78;;;6.28;;
56373;SDS011;58212;47.034;7.376;2022-08-19T05:06:25;7.20;;;6.50;;
56373;SDS011;58212;47.034;7.376;2022-08-19T05:08:53;6.95;;;6.32;;
56373;SDS011;58212;47.034;7.376;2022-08-19T05:11:26;7.00;;;6.50;;
56373;SDS011;58212;47.034;7.376;2022-08-19T05:13:58;6.95;;;6.38;;
56373;SDS011;58212;47.034;7.376;2022-08-19T05:16:28;7.50;;;6.78;;
56373;SDS011;58212;47.034;7.376;2022-08-19T05:18:57;7.70;;;6.45;;
56373;SDS011;58212;47.034;7.376;2022-08-19T05:21:42;7.30;;;6.65;;
56373;SDS011;58212;47.034;7.376;2022-08-19T05:24:27;7.50;;;6.63;;
56373;SDS011;58212;47.034;7.376;2022-08-19T05:26:56;7.10;;;6.60;;
56373;SDS011;58212;47.034;7.376;2022-08-19T05:29:26;7.30;;;6.60;;
56373;SDS011;58212;47.034;7.376;2022-08-19T05:31:54;7.22;;;6.65;;
56373;SDS011;58212;47.034;7.376;2022-08-19T05:34:22;6.78;;;6.20;;
56373;SDS011;58212;47.034;7.376;2022-08-19T05:36:54;7.43;;;6.82;;
56373;SDS011;58212;47.034;7.376;2022-08-19T05:39:37;7.72;;;6.97;;
56373;SDS011;58212;47.034;7.376;2022-08-19T05:42:08;7.25;;;6.75;;
56373;SDS011;58212;47.034;7.376;2022-08-19T05:44:41;7.30;;;6.70;;
56373;SDS011;58212;47.034;7.376;2022-08-19T05:47:09;6.95;;;6.35;;
56373;SDS011;58212;47.034;7.376;2022-08-19T05:49:38;7.78;;;7.07;;
56373;SDS011;58212;47.034;7.376;2022-08-19T05:52:06;7.78;;;7.00;;
56373;SDS011;58212;47.034;7.376;2022-08-19T05:54:36;7.90;;;7.30;;
56373;SDS011;58212;47.034;7.376;2022-08-19T05:57:07;7.28;;;6.68;;
56373;SDS011;58212;47.034;7.376;2022-08-19T05:59:34;8.23;;;7.43;;
56373;SDS011;58212;47.034;7.376;2022-08-19T06:02:02;7.43;;;6.72;;
56373;SDS011;58212;47.034;7.376;2022-08-19T06:04:32;8.15;;;7.47;;
56373;SDS011;58212;47.034;7.376;2022-08-19T06:07:02;8.57;;;7.70;;
56373;SDS011;58212;47.034;7.376;2022-08-19T06:09:29;8.65;;;7.95;;
56373;SDS011;58212;47.034;7.376;2022-08-19T06:11:59;8.30;;;7.70;;
56373;SDS011;58212;47.034;7.376;2022-08-19T06:14:30;8.35;;;7.55;;
56373;SDS011;58212;47.034;7.376;2022-08-19T06:16:59;8.88;;;8.18;;
56373;SDS011;58212;47.034;7.376;2022-08-19T06:19:28;7.30;;;6.70;;
56373;SDS011;58212;47.034;7.376;2022-08-19T06:21:58;8.63;;;7.82;;
56373;SDS011;58212;47.034;7.376;2022-08-19T06:24:26;9.90;;;9.10;;
56373;SDS011;58212;47.034;7.376;2022-08-19T06:26:56;9.20;;;8.40;;
56373;SDS011;58212;47.034;7.376;2022-08-19T06:29:26;8.70;;;8.00;;
56373;SDS011;58212;47.034;7.376;2022-08-19T06:31:56;8.10;;;7.50;;
56373;SDS011;58212;47.034;7.376;2022-08-19T06:34:28;9.50;;;8.65;;
56373;SDS011;58212;47.034;7.376;2022-08-19T06:36:57;8.65;;;7.95;;
56373;SDS011;58212;47.034;7.376;2022-08-19T06:39:27;9.10;;;8.40;;
56373;SDS011;58212;47.034;7.376;2022-08-19T06:41:59;9.02;;;8.32;;
56373;SDS011;58212;47.034;7.376;2022-08-19T06:44:29;8.55;;;7.85;;
56373;SDS011;58212;47.034;7.376;2022-08-19T06:47:02;8.52;;;7.63;;
56373;SDS011;58212;47.034;7.376;2022-08-19T06:49:30;10.32;;;9.43;;
56373;SDS011;58212;47.034;7.376;2022-08-19T06:51:58;10.00;;;9.20;;
56373;SDS011;58212;47.034;7.376;2022-08-19T06:54:27;10.05;;;9.25;;
56373;SDS011;58212;47.034;7.376;2022-08-19T06:56:57;9.93;;;9.00;;
56373;SDS011;58212;47.034;7.376;2022-08-19T06:59:27;9.80;;;9.00;;
56373;SDS011;58212;47.034;7.376;2022-08-19T07:01:58;10.68;;;9.70;;
56373;SDS011;58212;47.034;7.376;2022-08-19T07:04:29;9.18;;;8.38;;
56373;SDS011;58212;47.034;7.376;2022-08-19T07:06:58;10.40;;;9.60;;
56373;SDS011;58212;47.034;7.376;2022-08-19T07:09:26;8.55;;;7.82;;
56373;SDS011;58212;47.034;7.376;2022-08-19T07:11:57;9.27;;;8.48;;
56373;SDS011;58212;47.034;7.376;2022-08-19T07:14:27;10.20;;;9.30;;
56373;SDS011;58212;47.034;7.376;2022-08-19T07:16:56;9.63;;;8.73;;
56373;SDS011;58212;47.034;7.376;2022-08-19T07:19:25;10.05;;;9.05;;
56373;SDS011;58212;47.034;7.376;2022-08-19T07:21:55;10.20;;;9.20;;
56373;SDS011;58212;47.034;7.376;2022-08-19T07:24:23;9.77;;;8.77;;
56373;SDS011;58212;47.034;7.376;2022-08-19T07:26:52;9.55;;;8.65;;
56373;SDS011;58212;47.034;7.376;2022-08-19T07:29:24;8.93;;;8.23;;
56373;SDS011;58212;47.034;7.376;2022-08-19T07:31:51;9.20;;;8.20;;
56373;SDS011;58212;47.034;7.376;2022-08-19T07:34:21;9.13;;;8.32;;
56373;SDS011;58212;47.034;7.376;2022-08-19T07:36:53;9.85;;;8.95;;
56373;SDS011;58212;47.034;7.376;2022-08-19T07:39:22;8.85;;;8.13;;
56373;SDS011;58212;47.034;7.376;2022-08-19T07:41:51;9.20;;;8.40;;
56373;SDS011;58212;47.034;7.376;2022-08-19T07:44:20;8.80;;;8.00;;
56373;SDS011;58212;47.034;7.376;2022-08-19T07:46:50;8.43;;;7.72;;
56373;SDS011;58212;47.034;7.376;2022-08-19T07:49:19;8.48;;;7.85;;
56373;SDS011;58212;47.034;7.376;2022-08-19T07:51:47;8.93;;;8.13;;
56373;SDS011;58212;47.034;7.376;2022-08-19T07:54:18;9.40;;;8.45;;
56373;SDS011;58212;47.034;7.376;2022-08-19T07:56:46;7.82;;;6.88;;
56373;SDS011;58212;47.034;7.376;2022-08-19T07:59:17;8.25;;;7.55;;
56373;SDS011;58212;47.034;7.376;2022-08-19T08:01:44;7.43;;;6.40;;
56373;SDS011;58212;47.034;7.376;2022-08-19T08:04:12;7.45;;;6.65;;
56373;SDS011;58212;47.034;7.376;2022-08-19T08:06:57;6.32;;;5.72;;
56373;SDS011;58212;47.034;7.376;2022-08-19T08:09:43;6.05;;;5.60;;
56373;SDS011;58212;47.034;7.376;2022-08-19T08:12:12;5.78;;;5.30;;
56373;SDS011;58212;47.034;7.376;2022-08-19T08:14:42;5.93;;;5.53;;
56373;SDS011;58212;47.034;7.376;2022-08-19T08:17:11;4.75;;;4.45;;
56373;SDS011;58212;47.034;7.376;2022-08-19T08:19:38;5.57;;;5.07;;
56373;SDS011;58212;47.034;7.376;2022-08-19T08:22:07;5.75;;;5.25;;
56373;SDS011;58212;47.034;7.376;2022-08-19T08:24:56;6.90;;;6.32;;
56373;SDS011;58212;47.034;7.376;2022-08-19T08:27:28;7.55;;;6.85;;
56373;SDS011;58212;47.034;7.376;2022-08-19T08:29:58;11.82;;;10.68;;
56373;SDS011;58212;47.034;7.376;2022-08-19T08:32:27;7.13;;;6.53;;
56373;SDS011;58212;47.034;7.376;2022-08-19T08:34:55;5.95;;;5.45;;
56373;SDS011;58212;47.034;7.376;2022-08-19T08:37:22;6.55;;;5.97;;
56373;SDS011;58212;47.034;7.376;2022-08-19T08:39:52;7.20;;;6.60;;
56373;SDS011;58212;47.034;7.376;2022-08-19T08:42:24;7.28;;;6.57;;
56373;SDS011;58212;47.034;7.376;2022-08-19T08:44:59;6.55;;;5.95;;
56373;SDS011;58212;47.034;7.376;2022-08-19T08:47:29;6.93;;;6.13;;
56373;SDS011;58212;47.034;7.376;2022-08-19T08:50:01;7.18;;;6.68;;
56373;SDS011;58212;47.034;7.376;2022-08-19T08:52:31;7.55;;;6.85;;
56373;SDS011;58212;47.034;7.376;2022-08-19T08:55:05;7.10;;;6.50;;
56373;SDS011;58212;47.034;7.376;2022-08-19T08:57:43;7.70;;;7.00;;
56373;SDS011;58212;47.034;7.376;2022-08-19T09:00:18;7.90;;;7.07;;
56373;SDS011;58212;47.034;7.376;2022-08-19T09:02:47;8.13;;;7.53;;
56373;SDS011;58212;47.034;7.376;2022-08-19T09:05:16;7.82;;;7.13;;
56373;SDS011;58212;47.034;7.376;2022-08-19T09:07:48;7.75;;;7.10;;
56373;SDS011;58212;47.034;7.376;2022-08-19T09:10:25;7.13;;;6.63;;
56373;SDS011;58212;47.034;7.376;2022-08-19T09:12:59;8.57;;;7.82;;
56373;SDS011;58212;47.034;7.376;2022-08-19T09:15:34;7.75;;;7.05;;
56373;SDS011;58212;47.034;7.376;2022-08-19T09:18:07;8.45;;;7.70;;
56373;SDS011;58212;47.034;7.376;2022-08-19T09:20:35;8.15;;;7.55;;
56373;SDS011;58212;47.034;7.376;2022-08-19T09:23:02;8.20;;;7.60;;
56373;SDS011;58212;47.034;7.376;2022-08-19T09:25:30;8.32;;;7.53;;
56373;SDS011;58212;47.034;7.376;2022-08-19T09:28:01;8.52;;;7.85;;
56373;SDS011;58212;47.034;7.376;2022-08-19T09:30:30;8.43;;;7.70;;
56373;SDS011;58212;47.034;7.376;2022-08-19T09:33:01;8.63;;;7.93;;
56373;SDS011;58212;47.034;7.376;2022-08-19T09:35:29;8.43;;;7.82;;
56373;SDS011;58212;47.034;7.376;2022-08-19T09:37:57;7.35;;;6.75;;
56373;SDS011;58212;47.034;7.376;2022-08-19T09:40:25;7.07;;;6.57;;
56373;SDS011;58212;47.034;7.376;2022-08-19T09:42:53;6.63;;;6.00;;
56373;SDS011;58212;47.034;7.376;2022-08-19T09:45:26;5.90;;;5.40;;
56373;SDS011;58212;47.034;7.376;2022-08-19T09:47:53;7.25;;;6.70;;
56373;SDS011;58212;47.034;7.376;2022-08-19T09:50:21;7.28;;;6.68;;
56373;SDS011;58212;47.034;7.376;2022-08-19T09:52:49;6.53;;;6.03;;
56373;SDS011;58212;47.034;7.376;2022-08-19T09:55:18;7.20;;;6.60;;
56373;SDS011;58212;47.034;7.376;2022-08-19T09:57:45;6.88;;;6.28;;
56373;SDS011;58212;47.034;7.376;2022-08-19T10:00:15;7.63;;;7.03;;
56373;SDS011;58212;47.034;7.376;2022-08-19T10:02:43;7.10;;;6.60;;
56373;SDS011;58212;47.034;7.376;2022-08-19T10:05:18;8.23;;;7.43;;
56373;SDS011;58212;47.034;7.376;2022-08-19T10:08:02;8.15;;;7.47;;
56373;SDS011;58212;47.034;7.376;2022-08-19T10:10:29;8.90;;;8.23;;
56373;SDS011;58212;47.034;7.376;2022-08-19T10:13:03;7.47;;;6.75;;
56373;SDS011;58212;47.034;7.376;2022-08-19T10:15:30;8.27;;;7.57;;
56373;SDS011;58212;47.034;7.376;2022-08-19T10:18:01;9.05;;;8.35;;
56373;SDS011;58212;47.034;7.376;2022-08-19T10:20:29;7.80;;;7.20;;
56373;SDS011;58212;47.034;7.376;2022-08-19T10:22:56;8.63;;;8.02;;
56373;SDS011;58212;47.034;7.376;2022-08-19T10:25:25;9.80;;;9.00;;
56373;SDS011;58212;47.034;7.376;2022-08-19T10:27:52;8.23;;;7.63;;
56373;SDS011;58212;47.034;7.376;2022-08-19T10:30:19;8.98;;;8.27;;
56373;SDS011;58212;47.034;7.376;2022-08-19T10:32:47;9.52;;;8.70;;
56373;SDS011;58212;47.034;7.376;2022-08-19T10:35:15;9.70;;;8.85;;
56373;SDS011;58212;47.034;7.376;2022-08-19T10:37:42;9.82;;;9.02;;
56373;SDS011;58212;47.034;7.376;2022-08-19T10:40:10;10.07;;;9.27;;
56373;SDS011;58212;47.034;7.376;2022-08-19T10:42:39;10.15;;;9.35;;
56373;SDS011;58212;47.034;7.376;2022-08-19T10:45:07;10.32;;;9.52;;
56373;SDS011;58212;47.034;7.376;2022-08-19T10:47:36;10.30;;;9.50;;
56373;SDS011;58212;47.034;7.376;2022-08-19T10:50:06;10.15;;;9.25;;
56373;SDS011;58212;47.034;7.376;2022-08-19T10:52:52;11.00;;;10.00;;
56373;SDS011;58212;47.034;7.376;2022-08-19T10:55:20;11.38;;;10.57;;
56373;SDS011;58212;47.034;7.376;2022-08-19T10:58:10;10.95;;;10.15;;
56373;SDS011;58212;47.034;7.376;2022-08-19T11:00:38;11.90;;;10.90;;
56373;SDS011;58212;47.034;7.376;2022-08-19T11:03:07;10.45;;;9.55;;
56373;SDS011;58212;47.034;7.376;2022-08-19T11:05:37;11.32;;;10.43;;
56373;SDS011;58212;47.034;7.376;2022-08-19T11:08:09;10.23;;;9.43;;
56373;SDS011;58212;47.034;7.376;2022-08-19T11:10:40;11.57;;;10.68;;
56373;SDS011;58212;47.034;7.376;2022-08-19T11:13:09;11.93;;;10.93;;
56373;SDS011;58212;47.034;7.376;2022-08-19T11:15:36;11.85;;;10.95;;
56373;SDS011;58212;47.034;7.376;2022-08-19T11:18:03;12.88;;;11.77;;
56373;SDS011;58212;47.034;7.376;2022-08-19T11:20:30;11.73;;;10.73;;
56373;SDS011;58212;47.034;7.376;2022-08-19T11:23:00;11.88;;;10.88;;
56373;SDS011;58212;47.034;7.376;2022-08-19T11:25:29;12.32;;;11.23;;
56373;SDS011;58212;47.034;7.376;2022-08-19T11:27:56;12.32;;;11.43;;
56373;SDS011;58212;47.034;7.376;2022-08-19T11:30:23;12.40;;;11.30;;
56373;SDS011;58212;47.034;7.376;2022-08-19T11:32:50;12.50;;;11.40;;
56373;SDS011;58212;47.034;7.376;2022-08-19T11:35:27;13.35;;;12.25;;
56373;SDS011;58212;47.034;7.376;2022-08-19T11:37:57;13.15;;;12.13;;
56373;SDS011;58212;47.034;7.376;2022-08-19T11:40:29;13.70;;;12.60;;
56373;SDS011;58212;47.034;7.376;2022-08-19T11:42:58;13.70;;;12.60;;
56373;SDS011;58212;47.034;7.376;2022-08-19T11:45:25;12.82;;;11.80;;
56373;SDS011;58212;47.034;7.376;2022-08-19T11:47:54;13.02;;;11.93;;
56373;SDS011;58212;47.034;7.376;2022-08-19T11:50:22;10.88;;;9.98;;
56373;SDS011;58212;47.034;7.376;2022-08-19T11:52:49;13.80;;;12.60;;
56373;SDS011;58212;47.034;7.376;2022-08-19T11:55:19;12.38;;;11.38;;
56373;SDS011;58212;47.034;7.376;2022-08-19T11:57:48;13.60;;;12.40;;
56373;SDS011;58212;47.034;7.376;2022-08-19T12:00:15;12.73;;;11.70;;
56373;SDS011;58212;47.034;7.376;2022-08-19T12:02:42;12.85;;;11.75;;
56373;SDS011;58212;47.034;7.376;2022-08-19T12:05:09;13.35;;;12.30;;
56373;SDS011;58212;47.034;7.376;2022-08-19T12:07:37;14.75;;;13.55;;
56373;SDS011;58212;47.034;7.376;2022-08-19T12:10:05;13.82;;;12.73;;
56373;SDS011;58212;47.034;7.376;2022-08-19T12:12:32;14.70;;;13.40;;
56373;SDS011;58212;47.034;7.376;2022-08-19T12:15:00;15.65;;;14.35;;
56373;SDS011;58212;47.034;7.376;2022-08-19T12:17:28;15.20;;;14.00;;
56373;SDS011;58212;47.034;7.376;2022-08-19T12:19:55;12.68;;;11.65;;
56373;SDS011;58212;47.034;7.376;2022-08-19T12:22:25;16.42;;;15.02;;
56373;SDS011;58212;47.034;7.376;2022-08-19T12:24:54;14.65;;;13.30;;
56373;SDS011;58212;47.034;7.376;2022-08-19T12:27:24;16.20;;;14.93;;
56373;SDS011;58212;47.034;7.376;2022-08-19T12:29:54;13.00;;;12.00;;
56373;SDS011;58212;47.034;7.376;2022-08-19T12:32:23;15.15;;;13.82;;
56373;SDS011;58212;47.034;7.376;2022-08-19T12:34:51;15.55;;;14.15;;
56373;SDS011;58212;47.034;7.376;2022-08-19T12:37:19;16.70;;;15.40;;
56373;SDS011;58212;47.034;7.376;2022-08-19T12:39:47;14.23;;;13.02;;
56373;SDS011;58212;47.034;7.376;2022-08-19T12:42:14;16.27;;;14.88;;
56373;SDS011;58212;47.034;7.376;2022-08-19T12:44:43;16.05;;;14.55;;
56373;SDS011;58212;47.034;7.376;2022-08-19T12:47:12;15.48;;;14.05;;
56373;SDS011;58212;47.034;7.376;2022-08-19T12:49:41;15.13;;;13.82;;
56373;SDS011;58212;47.034;7.376;2022-08-19T12:52:09;16.10;;;14.75;;
56373;SDS011;58212;47.034;7.376;2022-08-19T12:54:40;15.20;;;14.00;;
56373;SDS011;58212;47.034;7.376;2022-08-19T12:57:08;16.55;;;15.05;;
56373;SDS011;58212;47.034;7.376;2022-08-19T12:59:37;14.30;;;13.10;;
56373;SDS011;58212;47.034;7.376;2022-08-19T13:02:04;16.75;;;15.25;;
56373;SDS011;58212;47.034;7.376;2022-08-19T13:04:33;16.90;;;15.43;;
56373;SDS011;58212;47.034;7.376;2022-08-19T13:07:06;16.42;;;15.05;;
56373;SDS011;58212;47.034;7.376;2022-08-19T13:09:34;13.80;;;12.60;;
56373;SDS011;58212;47.034;7.376;2022-08-19T13:12:02;13.40;;;12.38;;
56373;SDS011;58212;47.034;7.376;2022-08-19T13:14:33;16.30;;;14.90;;
56373;SDS011;58212;47.034;7.376;2022-08-19T13:17:02;17.95;;;16.45;;
56373;SDS011;58212;47.034;7.376;2022-08-19T13:19:29;17.20;;;15.80;;
56373;SDS011;58212;47.034;7.376;2022-08-19T13:21:59;18.05;;;16.42;;
56373;SDS011;58212;47.034;7.376;2022-08-19T13:24:27;17.40;;;15.93;;
56373;SDS011;58212;47.034;7.376;2022-08-19T13:26:54;14.13;;;12.98;;
56373;SDS011;58212;47.034;7.376;2022-08-19T13:29:22;15.80;;;14.32;;
56373;SDS011;58212;47.034;7.376;2022-08-19T13:32:06;13.40;;;12.40;;
56373;SDS011;58212;47.034;7.376;2022-08-19T13:34:50;16.40;;;14.95;;
56373;SDS011;58212;47.034;7.376;2022-08-19T13:37:18;15.13;;;13.85;;
56373;SDS011;58212;47.034;7.376;2022-08-19T13:40:07;13.25;;;12.15;;
56373;SDS011;58212;47.034;7.376;2022-08-19T13:42:38;13.70;;;12.63;;
56373;SDS011;58212;47.034;7.376;2022-08-19T13:45:07;10.90;;;10.10;;
56373;SDS011;58212;47.034;7.376;2022-08-19T13:47:35;12.15;;;11.05;;
56373;SDS011;58212;47.034;7.376;2022-08-19T13:50:04;11.45;;;10.55;;
56373;SDS011;58212;47.034;7.376;2022-08-19T13:52:34;12.48;;;11.48;;
56373;SDS011;58212;47.034;7.376;2022-08-19T13:55:01;11.73;;;10.77;;
56373;SDS011;58212;47.034;7.376;2022-08-19T13:57:31;13.02;;;11.93;;
56373;SDS011;58212;47.034;7.376;2022-08-19T13:59:58;10.80;;;10.00;;
56373;SDS011;58212;47.034;7.376;2022-08-19T14:02:26;13.50;;;12.30;;
56373;SDS011;58212;47.034;7.376;2022-08-19T14:04:53;12.10;;;11.10;;
56373;SDS011;58212;47.034;7.376;2022-08-19T14:07:22;12.13;;;11.10;;
56373;SDS011;58212;47.034;7.376;2022-08-19T14:09:52;12.32;;;11.32;;
56373;SDS011;58212;47.034;7.376;2022-08-19T14:12:19;11.82;;;10.82;;
56373;SDS011;58212;47.034;7.376;2022-08-19T14:14:48;10.25;;;9.32;;
56373;SDS011;58212;47.034;7.376;2022-08-19T14:17:17;11.02;;;10.02;;
56373;SDS011;58212;47.034;7.376;2022-08-19T14:19:48;12.10;;;11.10;;
56373;SDS011;58212;47.034;7.376;2022-08-19T14:22:15;11.57;;;10.57;;
56373;SDS011;58212;47.034;7.376;2022-08-19T14:24:42;11.27;;;10.18;;
56373;SDS011;58212;47.034;7.376;2022-08-19T14:27:09;10.15;;;9.25;;
56373;SDS011;58212;47.034;7.376;2022-08-19T14:29:36;10.55;;;9.55;;
56373;SDS011;58212;47.034;7.376;2022-08-19T14:32:05;10.77;;;9.98;;
56373;SDS011;58212;47.034;7.376;2022-08-19T14:34:32;10.43;;;9.52;;
56373;SDS011;58212;47.034;7.376;2022-08-19T14:37:02;9.90;;;9.10;;
56373;SDS011;58212;47.034;7.376;2022-08-19T14:39:30;9.73;;;8.93;;
56373;SDS011;58212;47.034;7.376;2022-08-19T14:41:57;9.95;;;9.15;;
56373;SDS011;58212;47.034;7.376;2022-08-19T14:44:24;10.07;;;9.18;;
56373;SDS011;58212;47.034;7.376;2022-08-19T14:46:51;10.13;;;9.25;;
56373;SDS011;58212;47.034;7.376;2022-08-19T14:49:20;9.98;;;9.07;;
56373;SDS011;58212;47.034;7.376;2022-08-19T14:51:48;11.55;;;10.57;;